createdAt,value
2019-06-08T00:00:23.540Z,17.71
2019-06-08T00:01:27.078Z,17.73
2019-06-08T00:02:31.274Z,17.78
2019-06-08T00:03:34.791Z,17.82
2019-06-08T00:04:38.974Z,17.72
2019-06-08T00:05:42.541Z,17.68
2019-06-08T00:06:46.596Z,17.75
2019-06-08T00:07:50.212Z,17.75
2019-06-08T00:08:54.372Z,17.77
2019-06-08T00:09:57.895Z,17.82
2019-06-08T00:11:01.995Z,17.84
2019-06-08T00:12:05.607Z,17.93
2019-06-08T00:13:09.625Z,17.93
2019-06-08T00:14:13.178Z,17.79
2019-06-08T00:15:18.635Z,17.84
2019-06-08T00:16:23.633Z,17.89
2019-06-08T00:17:37.960Z,17.99
2019-06-08T00:18:34.110Z,18.00
2019-06-08T00:19:38.227Z,17.95
2019-06-08T00:20:41.763Z,17.83
2019-06-08T00:21:45.804Z,17.68
2019-06-08T00:22:49.274Z,17.62
2019-06-08T00:23:53.373Z,17.58
2019-06-08T00:24:56.977Z,17.55
2019-06-08T00:26:01.070Z,17.62
2019-06-08T00:27:04.585Z,17.75
2019-06-08T00:28:08.680Z,17.85
2019-06-08T00:29:12.231Z,17.78
2019-06-08T00:30:16.410Z,17.87
2019-06-08T00:31:20.178Z,17.85
2019-06-08T00:32:25.334Z,17.82
2019-06-08T00:33:28.777Z,17.91
2019-06-08T00:34:32.896Z,17.82
2019-06-08T00:35:36.508Z,17.77
2019-06-08T00:36:40.646Z,17.72
2019-06-08T00:37:44.152Z,17.79
2019-06-08T00:38:48.171Z,17.84
2019-06-08T00:39:51.675Z,17.83
2019-06-08T00:40:55.725Z,17.87
2019-06-08T00:41:59.314Z,17.92
2019-06-08T00:43:03.354Z,17.98
2019-06-08T00:44:06.943Z,17.91
2019-06-08T00:45:11.958Z,17.87
2019-06-08T00:46:15.534Z,17.95
2019-06-08T00:47:20.515Z,17.91
2019-06-08T00:48:24.657Z,17.96
2019-06-08T00:49:29.129Z,17.91
2019-06-08T00:50:33.490Z,17.88
2019-06-08T00:51:37.513Z,17.98
2019-06-08T00:52:41.037Z,18.00
2019-06-08T00:53:45.198Z,17.97
2019-06-08T00:54:48.783Z,18.09
2019-06-08T00:55:52.896Z,18.12
2019-06-08T00:56:56.489Z,18.18
2019-06-08T00:58:00.651Z,18.09
2019-06-08T00:59:04.240Z,17.95
2019-06-08T01:00:10.522Z,17.93
2019-06-08T01:01:14.083Z,18.02
2019-06-08T01:02:18.331Z,18.12
2019-06-08T01:03:21.847Z,18.16
2019-06-08T01:04:27.147Z,18.22
2019-06-08T01:05:33.093Z,18.32
2019-06-08T01:06:37.265Z,18.36
2019-06-08T01:07:40.792Z,18.35
2019-06-08T01:08:44.897Z,18.35
2019-06-08T01:09:48.426Z,18.44
2019-06-08T01:10:52.795Z,18.39
2019-06-08T01:11:56.611Z,18.19
2019-06-08T01:13:00.740Z,18.20
2019-06-08T01:14:04.434Z,18.24
2019-06-08T01:15:09.472Z,18.15
2019-06-08T01:16:14.679Z,17.96
2019-06-08T01:17:19.295Z,18.03
2019-06-08T01:18:24.567Z,17.97
2019-06-08T01:19:29.619Z,18.04
2019-06-08T01:20:33.449Z,18.05
2019-06-08T01:21:37.819Z,17.94
2019-06-08T01:22:41.415Z,17.87
2019-06-08T01:23:45.609Z,17.88
2019-06-08T01:24:49.242Z,17.86
2019-06-08T01:25:53.835Z,17.87
2019-06-08T01:26:57.496Z,17.70
2019-06-08T01:28:01.664Z,17.68
2019-06-08T01:29:05.565Z,17.71
2019-06-08T01:30:11.561Z,17.61
2019-06-08T01:31:15.025Z,17.70
2019-06-08T01:32:20.257Z,17.68
2019-06-08T01:33:24.457Z,17.51
2019-06-08T01:34:29.021Z,17.50
2019-06-08T01:35:32.709Z,17.52
2019-06-08T01:36:36.895Z,17.59
2019-06-08T01:37:40.419Z,17.64
2019-06-08T01:38:44.443Z,17.70
2019-06-08T01:39:47.993Z,17.72
2019-06-08T01:40:52.071Z,17.54
2019-06-08T01:41:55.627Z,17.50
2019-06-08T01:42:59.727Z,17.56
2019-06-08T01:44:03.362Z,17.43
2019-06-08T01:45:11.524Z,17.38
2019-06-08T01:46:17.066Z,17.50
2019-06-08T01:47:22.127Z,17.52
2019-06-08T01:48:26.238Z,17.45
2019-06-08T01:49:30.581Z,17.33
2019-06-08T01:50:34.226Z,17.25
2019-06-08T01:51:38.359Z,17.26
2019-06-08T01:52:41.816Z,17.33
2019-06-08T01:53:45.985Z,17.23
2019-06-08T01:54:49.499Z,17.16
2019-06-08T01:55:53.525Z,17.16
2019-06-08T01:56:57.073Z,17.19
2019-06-08T01:58:01.258Z,17.18
2019-06-08T01:59:04.851Z,17.20
2019-06-08T02:01:14.915Z,17.15
2019-06-08T02:02:19.116Z,17.14
2019-06-08T02:03:23.824Z,17.12
2019-06-08T02:04:28.172Z,17.23
2019-06-08T02:05:32.529Z,17.27
2019-06-08T02:06:36.817Z,17.20
2019-06-08T02:07:40.345Z,17.28
2019-06-08T02:08:44.466Z,17.28
2019-06-08T02:09:48.066Z,17.33
2019-06-08T02:10:52.283Z,17.22
2019-06-08T02:11:55.876Z,17.25
2019-06-08T02:13:00.016Z,17.31
2019-06-08T02:14:03.838Z,17.39
2019-06-08T02:15:08.725Z,17.44
2019-06-08T02:16:12.242Z,17.46
2019-06-08T02:17:16.324Z,17.48
2019-06-08T02:18:35.529Z,17.52
2019-06-08T02:19:26.660Z,17.38
2019-06-08T02:20:30.823Z,17.49
2019-06-08T02:21:35.018Z,17.50
2019-06-08T02:22:39.377Z,17.51
2019-06-08T02:23:43.566Z,17.60
2019-06-08T02:24:47.029Z,17.60
2019-06-08T02:25:51.207Z,17.56
2019-06-08T02:26:54.805Z,17.50
2019-06-08T02:27:59.070Z,17.46
2019-06-08T02:29:02.746Z,17.42
2019-06-08T02:30:14.485Z,17.40
2019-06-08T02:31:17.986Z,17.44
2019-06-08T02:32:22.080Z,17.39
2019-06-08T02:33:25.524Z,17.38
2019-06-08T02:34:30.752Z,17.36
2019-06-08T02:35:35.950Z,17.43
2019-06-08T02:36:40.935Z,17.42
2019-06-08T02:37:44.415Z,17.35
2019-06-08T02:38:48.534Z,17.28
2019-06-08T02:39:52.126Z,17.13
2019-06-08T02:40:56.296Z,17.11
2019-06-08T02:41:59.739Z,17.02
2019-06-08T02:43:03.908Z,17.08
2019-06-08T02:44:07.515Z,17.10
2019-06-08T02:45:12.282Z,17.19
2019-06-08T02:46:15.852Z,17.14
2019-06-08T02:47:19.951Z,17.10
2019-06-08T02:48:23.469Z,17.11
2019-06-08T02:49:29.033Z,17.16
2019-06-08T02:50:44.530Z,17.01
2019-06-08T02:51:48.709Z,17.03
2019-06-08T02:52:53.018Z,16.99
2019-06-08T02:53:58.455Z,17.00
2019-06-08T02:55:02.142Z,17.05
2019-06-08T02:56:06.287Z,17.10
2019-06-08T02:57:10.896Z,17.03
2019-06-08T02:58:16.949Z,16.89
2019-06-08T02:59:22.811Z,16.95
2019-06-08T03:00:27.049Z,16.91
2019-06-08T03:01:35.753Z,16.98
2019-06-08T03:02:42.527Z,17.12
2019-06-08T03:03:47.664Z,17.03
2019-06-08T03:04:53.496Z,17.00
2019-06-08T03:06:00.016Z,16.85
2019-06-08T03:07:05.553Z,16.89
2019-06-08T03:08:10.836Z,16.95
2019-06-08T03:09:15.624Z,16.86
2019-06-08T03:10:19.206Z,16.94
2019-06-08T03:11:23.310Z,16.99
2019-06-08T03:12:27.278Z,16.90
2019-06-08T03:13:33.570Z,16.88
2019-06-08T03:14:39.702Z,16.90
2019-06-08T03:15:44.342Z,17.01
2019-06-08T03:16:47.954Z,17.01
2019-06-08T03:17:51.982Z,17.01
2019-06-08T03:18:55.503Z,17.10
2019-06-08T03:20:00.698Z,17.06
2019-06-08T03:21:04.200Z,17.04
2019-06-08T03:22:10.756Z,17.04
2019-06-08T03:23:13.436Z,17.04
2019-06-08T03:24:17.561Z,17.03
2019-06-08T03:25:21.082Z,17.01
2019-06-08T03:26:25.105Z,17.02
2019-06-08T03:27:28.569Z,17.02
2019-06-08T03:28:33.183Z,17.05
2019-06-08T03:29:39.111Z,17.10
2019-06-08T03:30:52.316Z,17.20
2019-06-08T03:31:55.547Z,17.28
2019-06-08T03:32:56.789Z,17.28
2019-06-08T03:33:59.903Z,17.21
2019-06-08T03:35:05.047Z,17.05
2019-06-08T03:36:08.590Z,16.98
2019-06-08T03:37:12.738Z,16.89
2019-06-08T03:38:16.169Z,16.94
2019-06-08T03:39:20.263Z,16.99
2019-06-08T03:40:23.805Z,16.88
2019-06-08T03:41:27.846Z,16.90
2019-06-08T03:42:31.290Z,16.87
2019-06-08T03:43:37.397Z,16.76
2019-06-08T03:44:40.553Z,16.75
2019-06-08T03:45:45.437Z,16.85
2019-06-08T03:46:49.008Z,16.89
2019-06-08T03:47:53.111Z,16.74
2019-06-08T03:48:56.576Z,16.73
2019-06-08T03:50:01.684Z,16.74
2019-06-08T03:51:05.204Z,16.75
2019-06-08T03:52:09.234Z,16.84
2019-06-08T03:53:12.748Z,16.91
2019-06-08T03:54:16.785Z,16.92
2019-06-08T03:55:20.422Z,16.96
2019-06-08T03:56:24.529Z,16.96
2019-06-08T03:57:28.082Z,16.94
2019-06-08T03:58:34.186Z,16.82
2019-06-08T03:59:38.535Z,16.77
2019-06-08T04:00:44.442Z,16.78
2019-06-08T04:01:49.866Z,16.79
2019-06-08T04:02:53.855Z,16.74
2019-06-08T04:04:00.112Z,16.69
2019-06-08T04:05:03.125Z,16.82
2019-06-08T04:06:06.721Z,16.90
2019-06-08T04:07:10.853Z,16.93
2019-06-08T04:08:14.368Z,16.97
2019-06-08T04:09:18.450Z,16.72
2019-06-08T04:10:21.876Z,16.75
2019-06-08T04:11:25.988Z,16.72
2019-06-08T04:12:29.495Z,16.62
2019-06-08T04:13:33.608Z,16.68
2019-06-08T04:14:37.866Z,16.74
2019-06-08T04:15:42.637Z,16.79
2019-06-08T04:16:47.259Z,16.74
2019-06-08T04:17:51.377Z,16.78
2019-06-08T04:18:54.798Z,16.81
2019-06-08T04:20:10.215Z,16.86
2019-06-08T04:21:04.104Z,16.89
2019-06-08T04:22:08.296Z,16.90
2019-06-08T04:23:11.883Z,16.93
2019-06-08T04:24:16.014Z,16.88
2019-06-08T04:25:19.674Z,16.82
2019-06-08T04:26:23.864Z,16.79
2019-06-08T04:27:27.381Z,16.65
2019-06-08T04:28:31.480Z,16.67
2019-06-08T04:29:34.919Z,16.61
2019-06-08T04:30:40.940Z,16.53
2019-06-08T04:31:45.915Z,16.42
2019-06-08T04:32:50.083Z,16.54
2019-06-08T04:33:53.655Z,16.61
2019-06-08T04:34:57.827Z,16.66
2019-06-08T04:36:01.404Z,16.63
2019-06-08T04:37:05.449Z,16.67
2019-06-08T04:38:08.976Z,16.70
2019-06-08T04:39:13.147Z,16.75
2019-06-08T04:40:17.138Z,16.75
2019-06-08T04:41:21.228Z,16.70
2019-06-08T04:42:24.835Z,16.65
2019-06-08T04:43:28.854Z,16.69
2019-06-08T04:44:32.289Z,16.70
2019-06-08T04:45:36.401Z,16.72
2019-06-08T04:46:43.037Z,16.81
2019-06-08T04:47:48.250Z,16.87
2019-06-08T04:48:51.886Z,16.81
2019-06-08T04:49:55.958Z,16.63
2019-06-08T04:50:59.423Z,16.55
2019-06-08T04:52:03.488Z,16.58
2019-06-08T04:53:07.034Z,16.65
2019-06-08T04:54:14.438Z,16.66
2019-06-08T04:55:16.519Z,16.68
2019-06-08T04:56:22.697Z,16.70
2019-06-08T04:57:26.404Z,16.72
2019-06-08T04:58:30.473Z,16.75
2019-06-08T04:59:34.059Z,16.79
2019-06-08T05:00:39.103Z,16.71
2019-06-08T05:01:45.000Z,16.64
2019-06-08T05:02:51.098Z,16.75
2019-06-08T05:03:54.312Z,16.82
2019-06-08T05:04:58.495Z,16.79
2019-06-08T05:06:02.220Z,16.82
2019-06-08T05:07:06.447Z,16.80
2019-06-08T05:08:10.001Z,16.81
2019-06-08T05:09:14.075Z,16.83
2019-06-08T05:10:17.838Z,16.83
2019-06-08T05:11:22.114Z,16.84
2019-06-08T05:12:25.765Z,16.90
2019-06-08T05:13:29.974Z,16.81
2019-06-08T05:14:33.582Z,16.78
2019-06-08T05:15:39.100Z,16.80
2019-06-08T05:16:43.210Z,16.83
2019-06-08T05:17:47.653Z,16.73
2019-06-08T05:18:53.884Z,16.73
2019-06-08T05:19:58.148Z,16.71
2019-06-08T05:21:03.236Z,16.67
2019-06-08T05:22:07.637Z,16.72
2019-06-08T05:23:11.429Z,16.78
2019-06-08T05:24:15.833Z,16.78
2019-06-08T05:25:19.424Z,16.73
2019-06-08T05:26:23.545Z,16.71
2019-06-08T05:27:27.129Z,16.81
2019-06-08T05:28:31.439Z,16.90
2019-06-08T05:29:35.075Z,16.94
2019-06-08T05:30:39.406Z,16.96
2019-06-08T05:31:43.539Z,17.04
2019-06-08T05:32:48.032Z,17.06
2019-06-08T05:33:51.611Z,17.09
2019-06-08T05:34:55.737Z,17.04
2019-06-08T05:35:59.284Z,17.03
2019-06-08T05:37:03.389Z,16.95
2019-06-08T05:38:06.835Z,16.84
2019-06-08T05:39:10.930Z,16.84
2019-06-08T05:40:15.036Z,16.86
2019-06-08T05:41:19.371Z,16.93
2019-06-08T05:42:22.814Z,16.95
2019-06-08T05:43:26.839Z,16.99
2019-06-08T05:44:30.279Z,16.99
2019-06-08T05:45:34.441Z,17.00
2019-06-08T05:46:39.592Z,17.00
2019-06-08T05:47:43.958Z,17.00
2019-06-08T05:48:48.022Z,16.96
2019-06-08T05:49:52.148Z,16.92
2019-06-08T05:51:03.577Z,16.97
2019-06-08T05:52:01.711Z,17.00
2019-06-08T05:53:05.406Z,16.95
2019-06-08T05:54:09.457Z,16.94
2019-06-08T05:55:13.526Z,16.97
2019-06-08T05:56:17.857Z,16.99
2019-06-08T05:57:21.561Z,17.02
2019-06-08T05:58:28.571Z,17.09
2019-06-08T05:59:32.086Z,17.14
2019-06-08T06:00:36.540Z,17.20
2019-06-08T06:01:40.427Z,17.27
2019-06-08T06:02:44.818Z,17.20
2019-06-08T06:03:48.846Z,17.16
2019-06-08T06:04:53.960Z,17.06
2019-06-08T06:05:57.596Z,17.02
2019-06-08T06:07:02.138Z,16.97
2019-06-08T06:08:17.999Z,16.89
2019-06-08T06:09:11.878Z,16.89
2019-06-08T06:10:15.746Z,16.86
2019-06-08T06:11:19.841Z,16.90
2019-06-08T06:12:23.574Z,17.01
2019-06-08T06:13:27.902Z,16.98
2019-06-08T06:14:31.639Z,17.04
2019-06-08T06:15:35.861Z,17.05
2019-06-08T06:16:40.808Z,17.07
2019-06-08T06:17:46.669Z,17.07
2019-06-08T06:18:52.154Z,17.17
2019-06-08T06:19:56.304Z,17.28
2019-06-08T06:21:10.483Z,17.33
2019-06-08T06:22:06.093Z,17.36
2019-06-08T06:23:09.826Z,17.40
2019-06-08T06:24:14.025Z,17.38
2019-06-08T06:25:17.619Z,17.29
2019-06-08T06:26:21.879Z,17.22
2019-06-08T06:27:25.520Z,17.16
2019-06-08T06:28:29.429Z,17.18
2019-06-08T06:29:33.164Z,17.07
2019-06-08T06:30:37.330Z,17.13
2019-06-08T06:31:41.644Z,17.20
2019-06-08T06:32:46.096Z,17.24
2019-06-08T06:33:50.060Z,17.13
2019-06-08T06:34:54.190Z,16.97
2019-06-08T06:35:57.826Z,16.99
2019-06-08T06:37:02.110Z,17.02
2019-06-08T06:38:05.671Z,17.13
2019-06-08T06:39:09.968Z,17.19
2019-06-08T06:40:15.504Z,17.10
2019-06-08T06:41:19.937Z,17.06
2019-06-08T06:42:24.977Z,17.10
2019-06-08T06:43:29.270Z,17.14
2019-06-08T06:44:32.934Z,17.16
2019-06-08T06:45:37.211Z,17.20
2019-06-08T06:46:41.855Z,17.27
2019-06-08T06:47:46.481Z,17.24
2019-06-08T06:48:50.419Z,17.30
2019-06-08T06:49:54.661Z,17.38
2019-06-08T06:50:58.188Z,17.41
2019-06-08T06:52:02.534Z,17.42
2019-06-08T06:53:06.200Z,17.42
2019-06-08T06:54:10.699Z,17.44
2019-06-08T06:55:14.373Z,17.40
2019-06-08T06:56:18.629Z,17.45
2019-06-08T06:57:22.288Z,17.38
2019-06-08T06:58:26.712Z,17.43
2019-06-08T06:59:30.143Z,17.48
2019-06-08T07:00:34.473Z,17.58
2019-06-08T07:01:38.622Z,17.66
2019-06-08T07:02:43.565Z,17.58
2019-06-08T07:03:47.978Z,17.59
2019-06-08T07:04:52.314Z,17.55
2019-06-08T07:05:55.925Z,17.62
2019-06-08T07:07:00.227Z,17.47
2019-06-08T07:08:03.864Z,17.38
2019-06-08T07:09:08.104Z,17.36
2019-06-08T07:10:11.846Z,17.31
2019-06-08T07:11:16.349Z,17.35
2019-06-08T07:12:20.031Z,17.35
2019-06-08T07:13:24.298Z,17.22
2019-06-08T07:14:27.908Z,17.17
2019-06-08T07:15:32.149Z,17.29
2019-06-08T07:16:35.667Z,17.36
2019-06-08T07:17:39.993Z,17.35
2019-06-08T07:18:43.579Z,17.34
2019-06-08T07:19:48.314Z,17.38
2019-06-08T07:20:52.384Z,17.28
2019-06-08T07:21:56.482Z,17.31
2019-06-08T07:23:00.045Z,17.35
2019-06-08T07:24:04.405Z,17.40
2019-06-08T07:25:08.308Z,17.42
2019-06-08T07:26:12.666Z,17.41
2019-06-08T07:27:16.171Z,17.38
2019-06-08T07:28:20.284Z,17.34
2019-06-08T07:29:23.991Z,17.39
2019-06-08T07:30:27.909Z,17.35
2019-06-08T07:31:31.557Z,17.31
2019-06-08T07:32:35.650Z,17.38
2019-06-08T07:33:39.344Z,17.47
2019-06-08T07:34:43.494Z,17.55
2019-06-08T07:35:48.717Z,17.60
2019-06-08T07:36:53.465Z,17.61
2019-06-08T07:37:57.100Z,17.57
2019-06-08T07:39:01.228Z,17.52
2019-06-08T07:40:07.682Z,17.49
2019-06-08T07:41:11.786Z,17.43
2019-06-08T07:42:15.310Z,17.49
2019-06-08T07:43:19.450Z,17.45
2019-06-08T07:44:22.934Z,17.44
2019-06-08T07:45:27.092Z,17.42
2019-06-08T07:46:30.594Z,17.50
2019-06-08T07:47:34.697Z,17.47
2019-06-08T07:48:38.181Z,17.53
2019-06-08T07:49:42.200Z,17.64
2019-06-08T07:50:45.820Z,17.64
2019-06-08T07:52:02.567Z,17.58
2019-06-08T07:52:55.182Z,17.59
2019-06-08T07:53:59.910Z,17.56
2019-06-08T07:55:06.257Z,17.40
2019-06-08T07:56:10.765Z,17.40
2019-06-08T07:57:14.621Z,17.42
2019-06-08T07:58:19.409Z,17.39
2019-06-08T07:59:23.385Z,17.43
2019-06-08T08:00:27.790Z,17.48
2019-06-08T08:01:36.310Z,17.45
2019-06-08T08:02:38.107Z,17.51
2019-06-08T08:03:41.989Z,17.62
2019-06-08T08:04:46.442Z,17.74
2019-06-08T08:05:50.461Z,17.83
2019-06-08T08:06:54.754Z,17.85
2019-06-08T08:07:58.995Z,17.82
2019-06-08T08:09:03.487Z,17.83
2019-06-08T08:10:07.818Z,17.83
2019-06-08T08:11:12.207Z,17.87
2019-06-08T08:12:16.014Z,17.91
2019-06-08T08:13:20.331Z,17.94
2019-06-08T08:14:24.232Z,17.88
2019-06-08T08:15:28.766Z,17.95
2019-06-08T08:16:32.466Z,18.02
2019-06-08T08:17:37.132Z,17.92
2019-06-08T08:18:41.016Z,17.87
2019-06-08T08:19:45.600Z,17.91
2019-06-08T08:20:53.010Z,17.87
2019-06-08T08:22:03.150Z,17.83
2019-06-08T08:23:05.998Z,17.66
2019-06-08T08:24:09.482Z,17.69
2019-06-08T08:25:13.560Z,17.59
2019-06-08T08:26:18.007Z,17.59
2019-06-08T08:27:21.698Z,17.56
2019-06-08T08:28:27.953Z,17.61
2019-06-08T08:29:32.406Z,17.68
2019-06-08T08:30:37.699Z,17.72
2019-06-08T08:31:41.797Z,17.69
2019-06-08T08:32:50.786Z,17.81
2019-06-08T08:33:54.655Z,17.71
2019-06-08T08:35:03.192Z,17.63
2019-06-08T08:36:07.479Z,17.64
2019-06-08T08:37:12.153Z,17.69
2019-06-08T08:38:17.738Z,17.60
2019-06-08T08:39:22.349Z,17.58
2019-06-08T08:40:28.205Z,17.66
2019-06-08T08:41:33.045Z,17.57
2019-06-08T08:42:39.760Z,17.55
2019-06-08T08:43:44.080Z,17.61
2019-06-08T08:44:48.627Z,17.54
2019-06-08T08:45:54.085Z,17.65
2019-06-08T08:47:02.388Z,17.70
2019-06-08T08:48:21.489Z,17.82
2019-06-08T08:49:13.082Z,17.94
2019-06-08T08:50:19.323Z,18.05
2019-06-08T08:51:23.326Z,18.15
2019-06-08T08:52:36.420Z,18.11
2019-06-08T08:53:32.761Z,18.08
2019-06-08T08:54:37.693Z,18.18
2019-06-08T08:55:41.694Z,18.24
2019-06-08T08:56:52.190Z,18.15
2019-06-08T08:57:54.802Z,18.13
2019-06-08T08:59:01.491Z,18.11
2019-06-08T09:00:08.532Z,17.84
2019-06-08T09:01:12.979Z,17.85
2019-06-08T09:02:20.719Z,17.92
2019-06-08T09:03:30.944Z,17.73
2019-06-08T09:04:28.134Z,17.52
2019-06-08T09:05:32.349Z,17.53
2019-06-08T09:06:38.097Z,17.58
2019-06-08T09:07:42.612Z,17.66
2019-06-08T09:08:48.542Z,17.62
2019-06-08T09:09:53.558Z,17.70
2019-06-08T09:10:59.610Z,17.83
2019-06-08T09:12:04.577Z,17.87
2019-06-08T09:13:09.274Z,17.86
2019-06-08T09:14:14.573Z,17.91
2019-06-08T09:15:19.240Z,17.81
2019-06-08T09:16:23.824Z,17.77
2019-06-08T09:17:29.158Z,17.69
2019-06-08T09:18:33.895Z,17.72
2019-06-08T09:19:38.378Z,17.77
2019-06-08T09:20:43.145Z,17.84
2019-06-08T09:21:48.180Z,17.71
2019-06-08T09:23:00.769Z,17.60
2019-06-08T09:24:01.054Z,17.65
2019-06-08T09:25:08.621Z,17.66
2019-06-08T09:26:13.074Z,17.76
2019-06-08T09:27:18.144Z,17.90
2019-06-08T09:28:22.180Z,18.07
2019-06-08T09:29:28.887Z,17.93
2019-06-08T09:30:34.055Z,17.92
2019-06-08T09:31:39.220Z,18.00
2019-06-08T09:32:43.125Z,18.05
2019-06-08T09:34:06.731Z,18.01
2019-06-08T09:34:54.650Z,18.00
2019-06-08T09:36:02.401Z,18.15
2019-06-08T09:37:05.800Z,18.21
2019-06-08T09:38:11.172Z,18.41
2019-06-08T09:39:18.367Z,18.44
2019-06-08T09:40:21.731Z,18.43
2019-06-08T09:41:30.770Z,18.30
2019-06-08T09:42:31.744Z,18.43
2019-06-08T09:43:38.585Z,18.60
2019-06-08T09:44:42.170Z,18.74
2019-06-08T09:45:48.369Z,18.83
2019-06-08T09:46:53.607Z,18.71
2019-06-08T09:48:03.636Z,18.72
2019-06-08T09:49:11.023Z,18.69
2019-06-08T09:50:12.254Z,18.45
2019-06-08T09:51:19.689Z,18.27
2019-06-08T09:52:28.141Z,18.19
2019-06-08T09:53:37.683Z,18.24
2019-06-08T09:54:38.562Z,18.28
2019-06-08T09:55:43.236Z,18.14
2019-06-08T09:56:47.914Z,18.29
2019-06-08T09:57:54.517Z,18.53
2019-06-08T09:59:04.024Z,18.71
2019-06-08T10:00:17.814Z,18.77
2019-06-08T10:01:19.322Z,18.66
2019-06-08T10:02:23.653Z,18.74
2019-06-08T10:03:30.851Z,18.70
2019-06-08T10:04:35.146Z,18.78
2019-06-08T10:05:38.960Z,18.74
2019-06-08T10:06:43.122Z,18.60
2019-06-08T10:07:48.759Z,18.27
2019-06-08T10:08:54.292Z,18.25
2019-06-08T10:10:00.442Z,18.19
2019-06-08T10:11:09.006Z,18.17
2019-06-08T10:12:14.997Z,18.18
2019-06-08T10:13:22.321Z,18.31
2019-06-08T10:14:28.189Z,18.54
2019-06-08T10:15:33.468Z,18.74
2019-06-08T10:16:38.165Z,18.79
2019-06-08T10:17:47.668Z,18.78
2019-06-08T10:18:51.890Z,18.67
2019-06-08T10:20:00.226Z,18.75
2019-06-08T10:21:03.426Z,18.63
2019-06-08T10:22:08.664Z,18.80
2019-06-08T10:23:28.148Z,18.74
2019-06-08T10:24:18.861Z,18.81
2019-06-08T10:25:22.652Z,19.10
2019-06-08T10:26:28.243Z,19.36
2019-06-08T10:27:32.081Z,19.53
2019-06-08T10:28:39.796Z,19.46
2019-06-08T10:29:44.517Z,19.40
2019-06-08T10:30:49.415Z,19.35
2019-06-08T10:31:53.378Z,19.52
2019-06-08T10:33:00.487Z,19.64
2019-06-08T10:34:06.151Z,19.24
2019-06-08T10:35:12.689Z,19.10
2019-06-08T10:36:18.264Z,19.22
2019-06-08T10:37:22.629Z,19.36
2019-06-08T10:38:29.028Z,19.59
2019-06-08T10:39:33.707Z,19.53
2019-06-08T10:40:42.610Z,19.69
2019-06-08T10:41:51.256Z,19.77
2019-06-08T10:42:54.028Z,19.78
2019-06-08T10:44:01.489Z,19.61
2019-06-08T10:45:10.389Z,19.60
2019-06-08T10:46:17.167Z,19.51
2019-06-08T10:47:19.800Z,19.66
2019-06-08T10:48:30.420Z,19.56
2019-06-08T10:49:34.560Z,19.43
2019-06-08T10:50:39.425Z,19.57
2019-06-08T10:51:44.607Z,19.61
2019-06-08T10:52:49.248Z,19.51
2019-06-08T10:53:53.965Z,19.52
2019-06-08T10:55:01.541Z,19.55
2019-06-08T10:56:09.619Z,19.67
2019-06-08T10:57:12.681Z,19.66
2019-06-08T10:58:19.376Z,19.83
2019-06-08T10:59:22.955Z,19.81
2019-06-08T11:00:31.722Z,19.33
2019-06-08T11:01:38.902Z,19.30
2019-06-08T11:02:43.132Z,19.31
2019-06-08T11:03:48.882Z,19.23
2019-06-08T11:04:54.876Z,19.24
2019-06-08T11:06:01.254Z,19.41
2019-06-08T11:07:09.651Z,19.57
2019-06-08T11:08:14.474Z,19.73
2019-06-08T11:09:18.933Z,19.95
2019-06-08T11:10:22.591Z,20.04
2019-06-08T11:11:28.407Z,20.08
2019-06-08T11:12:32.222Z,19.63
2019-06-08T11:13:35.803Z,19.53
2019-06-08T11:14:40.815Z,19.65
2019-06-08T11:15:44.540Z,19.47
2019-06-08T11:16:48.717Z,19.39
2019-06-08T11:17:52.296Z,19.62
2019-06-08T11:18:59.098Z,19.76
2019-06-08T11:20:04.273Z,19.85
2019-06-08T11:21:12.536Z,19.58
2019-06-08T11:22:15.021Z,19.61
2019-06-08T11:23:19.563Z,19.62
2019-06-08T11:24:25.115Z,19.74
2019-06-08T11:25:29.234Z,19.69
2019-06-08T11:26:32.894Z,19.79
2019-06-08T11:27:38.761Z,20.07
2019-06-08T11:28:42.479Z,20.28
2019-06-08T11:29:47.743Z,20.40
2019-06-08T11:30:51.193Z,20.33
2019-06-08T11:31:55.349Z,20.30
2019-06-08T11:32:59.998Z,20.26
2019-06-08T11:34:06.061Z,20.26
2019-06-08T11:35:12.331Z,20.22
2019-06-08T11:36:18.572Z,20.49
2019-06-08T11:37:21.318Z,20.61
2019-06-08T11:38:25.534Z,20.69
2019-06-08T11:39:29.067Z,20.82
2019-06-08T11:40:33.116Z,20.95
2019-06-08T11:41:36.694Z,20.92
2019-06-08T11:42:40.870Z,20.72
2019-06-08T11:43:44.461Z,20.53
2019-06-08T11:44:51.128Z,20.50
2019-06-08T11:45:54.271Z,20.41
2019-06-08T11:47:00.313Z,20.40
2019-06-08T11:48:04.676Z,20.51
2019-06-08T11:49:13.482Z,20.69
2019-06-08T11:50:14.844Z,20.79
2019-06-08T11:51:19.216Z,20.79
2019-06-08T11:52:40.812Z,20.83
2019-06-08T11:53:48.182Z,20.70
2019-06-08T11:54:50.496Z,20.69
2019-06-08T11:55:54.986Z,20.64
2019-06-08T11:57:03.345Z,20.69
2019-06-08T11:58:10.452Z,20.70
2019-06-08T11:59:14.507Z,20.72
2019-06-08T12:00:30.181Z,20.75
2019-06-08T12:01:30.230Z,20.87
2019-06-08T12:02:34.423Z,20.90
2019-06-08T12:03:38.761Z,20.95
2019-06-08T12:04:42.941Z,21.21
2019-06-08T12:05:47.809Z,21.46
2019-06-08T12:06:52.408Z,21.61
2019-06-08T12:07:57.843Z,21.86
2019-06-08T12:09:02.703Z,21.80
2019-06-08T12:10:09.058Z,21.77
2019-06-08T12:11:18.162Z,21.81
2019-06-08T12:12:20.511Z,21.60
2019-06-08T12:13:23.597Z,21.53
2019-06-08T12:14:27.069Z,21.54
2019-06-08T12:15:31.113Z,21.75
2019-06-08T12:16:35.073Z,21.91
2019-06-08T12:17:39.248Z,21.84
2019-06-08T12:18:42.954Z,21.97
2019-06-08T12:19:47.631Z,22.09
2019-06-08T12:20:51.437Z,22.25
2019-06-08T12:21:57.867Z,22.41
2019-06-08T12:23:00.882Z,22.35
2019-06-08T12:24:06.204Z,22.58
2019-06-08T12:25:10.333Z,22.73
2019-06-08T12:26:14.692Z,22.81
2019-06-08T12:27:29.152Z,22.92
2019-06-08T12:28:24.084Z,22.89
2019-06-08T12:29:28.384Z,23.09
2019-06-08T12:30:32.656Z,23.47
2019-06-08T12:31:37.844Z,23.62
2019-06-08T12:32:42.048Z,23.78
2019-06-08T12:33:45.693Z,23.45
2019-06-08T12:34:49.809Z,22.95
2019-06-08T12:35:53.463Z,23.04
2019-06-08T12:36:58.288Z,23.19
2019-06-08T12:38:06.218Z,23.22
2019-06-08T12:39:11.842Z,23.26
2019-06-08T12:40:16.857Z,23.33
2019-06-08T12:41:21.742Z,23.17
2019-06-08T12:42:25.310Z,22.86
2019-06-08T12:43:29.487Z,22.90
2019-06-08T12:44:33.075Z,23.01
2019-06-08T12:45:38.137Z,23.33
2019-06-08T12:46:41.741Z,23.54
2019-06-08T12:47:47.778Z,23.75
2019-06-08T12:48:51.435Z,23.92
2019-06-08T12:49:55.452Z,24.08
2019-06-08T12:50:58.913Z,24.36
2019-06-08T12:52:03.252Z,24.63
2019-06-08T12:53:11.230Z,24.25
2019-06-08T12:54:13.072Z,24.26
2019-06-08T12:55:24.727Z,24.44
2019-06-08T12:56:24.419Z,24.65
2019-06-08T12:57:28.647Z,24.79
2019-06-08T12:58:32.727Z,24.46
2019-06-08T12:59:38.314Z,24.57
2019-06-08T13:00:43.394Z,24.55
2019-06-08T13:01:48.420Z,24.75
2019-06-08T13:02:52.655Z,25.31
2019-06-08T13:03:58.138Z,25.49
2019-06-08T13:05:02.060Z,25.37
2019-06-08T13:06:08.860Z,25.05
2019-06-08T13:07:11.951Z,25.03
2019-06-08T13:08:20.072Z,25.33
2019-06-08T13:09:22.393Z,25.58
2019-06-08T13:10:27.749Z,25.69
2019-06-08T13:11:31.886Z,25.96
2019-06-08T13:12:35.851Z,26.21
2019-06-08T13:13:40.018Z,26.18
2019-06-08T13:14:43.645Z,26.39
2019-06-08T13:15:48.543Z,26.49
2019-06-08T13:16:53.214Z,26.89
2019-06-08T13:17:58.655Z,26.96
2019-06-08T13:19:02.305Z,26.23
2019-06-08T13:20:21.833Z,25.80
2019-06-08T13:21:34.153Z,25.79
2019-06-08T13:22:31.411Z,25.62
2019-06-08T13:23:34.296Z,25.43
2019-06-08T13:24:38.404Z,25.65
2019-06-08T13:25:43.914Z,25.75
2019-06-08T13:26:50.406Z,26.23
2019-06-08T13:27:53.188Z,26.64
2019-06-08T13:28:58.277Z,26.63
2019-06-08T13:30:02.551Z,26.94
2019-06-08T13:31:07.867Z,26.90
2019-06-08T13:32:12.032Z,27.14
2019-06-08T13:33:16.310Z,27.38
2019-06-08T13:34:23.789Z,27.53
2019-06-08T13:35:27.387Z,27.69
2019-06-08T13:36:30.602Z,28.01
2019-06-08T13:37:34.682Z,27.87
2019-06-08T13:38:38.565Z,27.74
2019-06-08T13:39:43.126Z,27.63
2019-06-08T13:40:48.434Z,28.02
2019-06-08T13:41:52.686Z,28.18
2019-06-08T13:42:58.195Z,29.24
2019-06-08T13:44:02.102Z,29.42
2019-06-08T13:45:09.962Z,29.38
2019-06-08T13:46:14.188Z,29.38
2019-06-08T13:47:18.934Z,29.97
2019-06-08T13:48:23.562Z,29.86
2019-06-08T13:49:30.554Z,29.47
2019-06-08T13:50:32.988Z,29.81
2019-06-08T13:51:38.290Z,29.95
2019-06-08T13:52:42.456Z,29.95
2019-06-08T13:53:47.855Z,29.72